Аэропорт: Брест-2. Брест

ICAO: UMBB

METAR:
2018/07/16 15:00
UMBB 161500Z 21003MPS 9999 SCT036CB SCT100 24/15 Q1007 R29/CLRD// NOSIG
METAR:
2018/01/28 15:00
TAF UMBB 281405Z 2815/2824 26005G10MPS 4000 BR BKN007 BKN015CB 
      TEMPO 2815/2823 29007G12MPS 2000 SHRA BR BKN005